Time;durP1;ratioP1;P1;durP2;ratioP2;P2;SDS_P1;SDS_P2;PMS_P1;PMS_P2;Temp;Humidity;BMP_temperature;BMP_pressure;BME280_temperature;BME280_humidity;BME280_pressure;Samples;Min_cycle;Max_cycle;Signal;HPM_P1;HPM_P2
2022/03/22 00:01:36;;;;;;;38.10;34.87;;;;;;;;;;5014272;28;20439;-85
2022/03/22 00:04:04;;;;;;;38.43;35.03;;;;;;;;;;5013155;28;20477;-85
2022/03/22 00:06:33;;;;;;;38.10;35.00;;;;;;;;;;5014149;28;20489;-86
2022/03/22 00:09:00;;;;;;;38.37;35.13;;;;;;;;;;5014029;28;20453;-86
2022/03/22 00:11:28;;;;;;;38.53;35.47;;;;;;;;;;4996693;28;20445;-86
2022/03/22 00:13:55;;;;;;;38.03;34.87;;;;;;;;;;5014170;28;20445;-85
2022/03/22 00:16:22;;;;;;;39.60;36.10;;;;;;;;;;5013873;28;20449;-85
2022/03/22 00:18:50;;;;;;;39.13;35.70;;;;;;;;;;5014680;28;20444;-86
2022/03/22 00:21:19;;;;;;;37.70;34.50;;;;;;;;;;5014119;28;20469;-86
2022/03/22 00:23:48;;;;;;;38.30;35.20;;;;;;;;;;5013769;28;20427;-85
2022/03/22 00:26:15;;;;;;;38.50;35.27;;;;;;;;;;5014090;28;21032;-85
2022/03/22 00:28:43;;;;;;;38.17;34.87;;;;;;;;;;5013955;28;20441;-85
2022/03/22 00:31:11;;;;;;;38.07;34.97;;;;;;;;;;5013835;28;20472;-85
2022/03/22 00:33:39;;;;;;;38.10;34.93;;;;;;;;;;5014060;28;20540;-86
2022/03/22 00:36:06;;;;;;;36.97;33.83;;;;;;;;;;4996506;28;20506;-85
2022/03/22 00:38:34;;;;;;;36.83;33.73;;;;;;;;;;5013718;28;20477;-86
2022/03/22 00:41:03;;;;;;;38.37;35.37;;;;;;;;;;4996363;28;20959;-85
2022/03/22 00:43:30;;;;;;;40.10;36.60;;;;;;;;;;5013974;28;20448;-86
2022/03/22 00:45:57;;;;;;;37.80;34.70;;;;;;;;;;5013631;28;20477;-86
2022/03/22 00:48:25;;;;;;;37.17;34.23;;;;;;;;;;5013495;28;20437;-85
2022/03/22 00:50:52;;;;;;;37.03;33.97;;;;;;;;;;5013505;28;20425;-85
2022/03/22 00:53:19;;;;;;;38.40;35.13;;;;;;;;;;5013807;28;20441;-86
2022/03/22 00:55:47;;;;;;;39.10;35.70;;;;;;;;;;5013573;28;20411;-85
2022/03/22 00:58:16;;;;;;;39.67;36.50;;;;;;;;;;5013582;28;20438;-84
2022/03/22 01:00:44;;;;;;;38.53;34.93;;;;;;;;;;5013451;28;20427;-85
2022/03/22 01:03:11;;;;;;;39.13;35.70;;;;;;;;;;5013667;28;20446;-85
2022/03/22 01:05:39;;;;;;;38.93;35.43;;;;;;;;;;5013409;28;20481;-86
2022/03/22 01:08:07;;;;;;;38.23;35.23;;;;;;;;;;5013663;28;20433;-85
2022/03/22 01:10:35;;;;;;;39.20;36.10;;;;;;;;;;5013645;28;20419;-85
2022/03/22 01:13:03;;;;;;;39.60;36.00;;;;;;;;;;5013906;28;20477;-85
2022/03/22 01:15:34;;;;;;;40.23;36.83;;;;;;;;;;5015123;28;20440;-86
2022/03/22 01:18:05;;;;;;;39.23;36.00;;;;;;;;;;5017241;28;20445;-85
2022/03/22 01:20:33;;;;;;;38.60;35.40;;;;;;;;;;5017113;28;20447;-85
2022/03/22 01:23:02;;;;;;;37.80;34.27;;;;;;;;;;5017145;28;20448;-84
2022/03/22 01:25:30;;;;;;;37.90;34.83;;;;;;;;;;5017118;28;20943;-85
2022/03/22 01:27:58;;;;;;;38.00;35.10;;;;;;;;;;5017125;28;20437;-86
2022/03/22 01:30:26;;;;;;;38.30;35.30;;;;;;;;;;5016943;28;20441;-85
2022/03/22 01:32:56;;;;;;;39.60;36.20;;;;;;;;;;5016757;28;20531;-86
2022/03/22 01:35:24;;;;;;;36.10;33.30;;;;;;;;;;5017063;28;20416;-85
2022/03/22 01:37:52;;;;;;;39.40;36.20;;;;;;;;;;5016693;28;20481;-85
2022/03/22 01:40:20;;;;;;;39.50;36.20;;;;;;;;;;5016858;28;20830;-85
2022/03/22 01:42:48;;;;;;;37.93;34.80;;;;;;;;;;4999661;28;20433;-85
2022/03/22 01:45:16;;;;;;;37.57;34.47;;;;;;;;;;4999692;28;20438;-85
2022/03/22 01:47:44;;;;;;;38.70;35.60;;;;;;;;;;5016437;28;20513;-85
2022/03/22 01:50:14;;;;;;;38.17;34.90;;;;;;;;;;5016781;28;20423;-85
2022/03/22 01:52:43;;;;;;;36.27;33.50;;;;;;;;;;5016847;28;20441;-85
2022/03/22 01:55:11;;;;;;;37.47;34.03;;;;;;;;;;4998987;28;20978;-85
2022/03/22 01:57:39;;;;;;;37.47;34.20;;;;;;;;;;5016618;28;20476;-85
2022/03/22 02:00:07;;;;;;;37.37;34.27;;;;;;;;;;5016762;28;20531;-85
2022/03/22 02:08:08;;;;;;;39.03;35.73;;;;;;;;;;5016466;28;20433;-85
2022/03/22 02:10:35;;;;;;;39.80;36.10;;;;;;;;;;5016576;28;20465;-85
2022/03/22 02:13:03;;;;;;;37.83;34.70;;;;;;;;;;4998829;28;20416;-85
2022/03/22 02:15:31;;;;;;;39.40;35.90;;;;;;;;;;5016134;28;20905;-86
2022/03/22 02:17:59;;;;;;;41.87;37.80;;;;;;;;;;5016288;28;20444;-85
2022/03/22 02:20:28;;;;;;;38.67;35.53;;;;;;;;;;5016327;28;20408;-86
2022/03/22 02:23:00;;;;;;;39.83;36.27;;;;;;;;;;5016023;28;20472;-84
2022/03/22 02:25:29;;;;;;;38.93;35.83;;;;;;;;;;5015903;28;20436;-85
2022/03/22 02:27:56;;;;;;;38.80;35.60;;;;;;;;;;5015281;28;20669;-85
2022/03/22 02:30:24;;;;;;;40.20;36.60;;;;;;;;;;5015817;28;20527;-85
2022/03/22 02:32:52;;;;;;;40.90;37.70;;;;;;;;;;5015708;28;20412;-85
2022/03/22 02:35:19;;;;;;;38.17;34.97;;;;;;;;;;5015954;28;20442;-85
2022/03/22 02:37:47;;;;;;;38.70;35.20;;;;;;;;;;5015651;28;20488;-85
2022/03/22 02:40:15;;;;;;;37.80;34.70;;;;;;;;;;5015796;28;20437;-85
2022/03/22 02:42:45;;;;;;;38.13;35.00;;;;;;;;;;5015826;28;20440;-86
2022/03/22 02:45:13;;;;;;;39.13;35.83;;;;;;;;;;5015493;28;20851;-85
2022/03/22 02:47:40;;;;;;;40.47;36.53;;;;;;;;;;5015463;28;20489;-85
2022/03/22 02:50:09;;;;;;;38.13;34.87;;;;;;;;;;5015680;28;20891;-86
2022/03/22 02:52:36;;;;;;;39.77;36.40;;;;;;;;;;5015302;28;20408;-85
2022/03/22 02:55:04;;;;;;;38.90;35.47;;;;;;;;;;5015352;28;20453;-85
2022/03/22 02:57:32;;;;;;;40.33;36.83;;;;;;;;;;5015386;28;20446;-86
2022/03/22 03:00:02;;;;;;;39.10;35.80;;;;;;;;;;5015561;28;20426;-85
2022/03/22 03:02:29;;;;;;;38.50;35.40;;;;;;;;;;5015220;28;20486;-85
2022/03/22 03:04:57;;;;;;;38.83;35.53;;;;;;;;;;5015185;28;20430;-86
2022/03/22 03:07:24;;;;;;;39.37;36.07;;;;;;;;;;5014956;28;20463;-84
2022/03/22 03:09:52;;;;;;;37.60;34.53;;;;;;;;;;5015275;28;20449;-86
2022/03/22 03:12:19;;;;;;;40.00;36.60;;;;;;;;;;5015481;28;20438;-85
2022/03/22 03:14:47;;;;;;;37.50;34.50;;;;;;;;;;5015027;28;20935;-85
2022/03/22 03:17:16;;;;;;;37.90;34.83;;;;;;;;;;5015281;28;20777;-85
2022/03/22 03:19:58;;;;;;;39.03;35.93;;;;;;;;;;5015908;28;20415;-85
2022/03/22 03:22:26;;;;;;;38.30;35.13;;;;;;;;;;5015145;28;20448;-83
2022/03/22 03:24:53;;;;;;;37.40;34.30;;;;;;;;;;5014643;28;20423;-83
2022/03/22 03:27:22;;;;;;;37.33;34.20;;;;;;;;;;5013882;28;20473;-84
2022/03/22 03:29:49;;;;;;;38.33;35.23;;;;;;;;;;5014256;28;20440;-83
2022/03/22 03:32:18;;;;;;;36.60;33.60;;;;;;;;;;5014300;28;20959;-84
2022/03/22 03:34:45;;;;;;;38.10;35.00;;;;;;;;;;5014956;28;20809;-83
2022/03/22 03:37:13;;;;;;;39.10;35.30;;;;;;;;;;4997162;28;20457;-83
2022/03/22 03:39:40;;;;;;;39.80;36.40;;;;;;;;;;5014128;28;21013;-83
2022/03/22 03:42:07;;;;;;;39.43;36.00;;;;;;;;;;5014829;28;20423;-84
2022/03/22 03:47:23;;;;;;;39.10;35.60;;;;;;;;;;5014685;28;21048;-82
2022/03/22 03:49:51;;;;;;;37.27;33.90;;;;;;;;;;5014496;28;20498;-83
2022/03/22 03:52:20;;;;;;;39.40;36.13;;;;;;;;;;5014080;28;20495;-84
2022/03/22 03:54:47;;;;;;;40.10;36.60;;;;;;;;;;5014403;28;20448;-84
2022/03/22 03:57:15;;;;;;;38.50;35.17;;;;;;;;;;5014324;28;20584;-83
2022/03/22 03:59:43;;;;;;;36.73;33.83;;;;;;;;;;5014269;28;20453;-84
2022/03/22 04:02:10;;;;;;;37.73;34.83;;;;;;;;;;5014367;28;20790;-83
2022/03/22 04:04:40;;;;;;;38.77;35.23;;;;;;;;;;5014174;28;20536;-83
2022/03/22 04:07:37;;;;;;;39.03;35.40;;;;;;;;;;5016582;28;20520;-84
2022/03/22 04:10:05;;;;;;;38.47;34.90;;;;;;;;;;5007571;28;20964;-83
2022/03/22 04:12:34;;;;;;;37.93;34.73;;;;;;;;;;5014100;28;20503;-83
2022/03/22 04:15:01;;;;;;;39.13;35.57;;;;;;;;;;5014142;28;20498;-84
2022/03/22 04:17:28;;;;;;;38.13;34.60;;;;;;;;;;5013995;28;20440;-84
2022/03/22 04:19:57;;;;;;;40.10;36.60;;;;;;;;;;5013762;28;20415;-83
2022/03/22 04:22:25;;;;;;;41.33;37.43;;;;;;;;;;5014124;28;20446;-83
2022/03/22 04:24:52;;;;;;;42.70;38.50;;;;;;;;;;5014048;28;20808;-84
2022/03/22 04:32:49;;;;;;;39.37;36.10;;;;;;;;;;5013699;28;20391;-83
2022/03/22 04:35:20;;;;;;;39.40;35.70;;;;;;;;;;5013613;28;20886;-84
2022/03/22 04:37:49;;;;;;;39.40;36.10;;;;;;;;;;5013366;28;20527;-84
2022/03/22 04:40:16;;;;;;;40.17;35.97;;;;;;;;;;5013644;28;20902;-84
2022/03/22 04:42:44;;;;;;;38.07;34.77;;;;;;;;;;5014084;28;20429;-83
2022/03/22 04:45:12;;;;;;;39.23;35.93;;;;;;;;;;5013729;28;20473;-84
2022/03/22 04:47:39;;;;;;;37.27;34.13;;;;;;;;;;5013504;28;20474;-83
2022/03/22 04:50:07;;;;;;;37.53;34.20;;;;;;;;;;5015222;28;20437;-84
2022/03/22 04:58:06;;;;;;;38.37;34.83;;;;;;;;;;5019993;28;20283;-83
2022/03/22 05:00:34;;;;;;;37.83;34.63;;;;;;;;;;5019977;28;20415;-84
2022/03/22 05:03:01;;;;;;;36.97;33.87;;;;;;;;;;5020074;28;20194;-83
2022/03/22 05:08:14;;;;;;;38.47;34.97;;;;;;;;;;5019964;28;20995;-84
2022/03/22 05:10:42;;;;;;;39.60;36.03;;;;;;;;;;5020177;28;20431;-83
2022/03/22 05:13:09;;;;;;;36.35;33.20;;;;;;;;;;5020009;28;20432;-83
2022/03/22 05:15:36;;;;;;;39.43;35.87;;;;;;;;;;5019838;28;20653;-83
2022/03/22 05:18:04;;;;;;;38.38;34.95;;;;;;;;;;5020084;28;20441;-84
2022/03/22 05:20:32;;;;;;;38.57;35.17;;;;;;;;;;5019880;28;20194;-83
2022/03/22 05:22:59;;;;;;;37.23;33.93;;;;;;;;;;5020006;28;20799;-84
2022/03/22 05:25:31;;;;;;;37.88;34.58;;;;;;;;;;5020302;28;20434;-83
2022/03/22 05:28:00;;;;;;;37.50;34.20;;;;;;;;;;5019579;28;20700;-83
2022/03/22 05:30:27;;;;;;;35.93;32.97;;;;;;;;;;5002566;28;20455;-84
2022/03/22 05:32:55;;;;;;;36.37;33.30;;;;;;;;;;5019639;28;20911;-83
2022/03/22 05:35:23;;;;;;;38.50;35.17;;;;;;;;;;5019772;28;20441;-84
2022/03/22 05:37:51;;;;;;;37.42;34.17;;;;;;;;;;4998699;28;20985;-82
2022/03/22 05:40:18;;;;;;;35.35;32.22;;;;;;;;;;5000031;28;20194;-85
2022/03/22 05:42:47;;;;;;;36.10;33.10;;;;;;;;;;4999916;28;20195;-83
2022/03/22 05:45:15;;;;;;;38.78;35.13;;;;;;;;;;5000154;28;20444;-83
2022/03/22 05:47:42;;;;;;;37.37;34.03;;;;;;;;;;4999300;28;20237;-82
2022/03/22 05:50:10;;;;;;;35.83;32.60;;;;;;;;;;4999526;28;20419;-82
2022/03/22 05:52:42;;;;;;;37.53;34.17;;;;;;;;;;4999605;28;20453;-84
2022/03/22 05:55:10;;;;;;;36.97;33.77;;;;;;;;;;4999705;28;20230;-84
2022/03/22 05:57:37;;;;;;;36.37;33.30;;;;;;;;;;4999589;28;20486;-83
2022/03/22 06:00:08;;;;;;;37.80;34.37;;;;;;;;;;4999707;28;20453;-82
2022/03/22 06:02:37;;;;;;;38.40;34.90;;;;;;;;;;4995942;28;20461;-81
2022/03/22 06:05:05;;;;;;;37.53;34.33;;;;;;;;;;4996249;28;20477;-80
2022/03/22 06:07:33;;;;;;;36.53;33.33;;;;;;;;;;4996236;28;20486;-82
2022/03/22 06:10:00;;;;;;;36.80;33.50;;;;;;;;;;4996013;28;20685;-82
2022/03/22 06:12:27;;;;;;;35.33;32.53;;;;;;;;;;4996273;28;20454;-82
2022/03/22 06:15:14;;;;;;;35.57;32.60;;;;;;;;;;4996229;28;20421;-82
2022/03/22 06:17:43;;;;;;;37.70;34.17;;;;;;;;;;4995765;28;20816;-81
2022/03/22 06:20:11;;;;;;;39.23;35.83;;;;;;;;;;4996257;28;20867;-80
2022/03/22 06:22:38;;;;;;;37.10;33.73;;;;;;;;;;4996158;28;20457;-81
2022/03/22 06:25:06;;;;;;;37.53;34.00;;;;;;;;;;4996541;28;20453;-81
2022/03/22 06:27:35;;;;;;;35.83;32.63;;;;;;;;;;4995992;28;20469;-82
2022/03/22 06:30:03;;;;;;;34.70;31.90;;;;;;;;;;4996125;28;20446;-81
2022/03/22 06:32:30;;;;;;;37.07;33.17;;;;;;;;;;4995690;28;20442;-82
2022/03/22 06:34:59;;;;;;;39.10;32.73;;;;;;;;;;4995779;28;20438;-82
2022/03/22 06:37:26;;;;;;;36.40;33.13;;;;;;;;;;4995649;28;20448;-82
2022/03/22 06:39:54;;;;;;;36.43;33.20;;;;;;;;;;5015447;28;20777;-82
2022/03/22 06:42:21;;;;;;;35.57;32.17;;;;;;;;;;5015179;28;20429;-81
2022/03/22 06:44:49;;;;;;;37.17;33.97;;;;;;;;;;5015249;28;20478;-82
2022/03/22 06:47:16;;;;;;;35.27;32.13;;;;;;;;;;5015020;28;21085;-82
2022/03/22 06:49:43;;;;;;;35.50;32.30;;;;;;;;;;5014990;28;20448;-83
2022/03/22 06:52:12;;;;;;;37.13;34.13;;;;;;;;;;5014833;28;20445;-81
2022/03/22 06:54:40;;;;;;;36.20;33.03;;;;;;;;;;5014843;28;21029;-82
2022/03/22 06:57:07;;;;;;;35.30;32.33;;;;;;;;;;5015179;28;20453;-82
2022/03/22 06:59:36;;;;;;;35.30;32.13;;;;;;;;;;5015026;28;20473;-82
2022/03/22 07:02:04;;;;;;;35.70;32.80;;;;;;;;;;5014669;28;20429;-82
2022/03/22 07:04:32;;;;;;;35.20;32.10;;;;;;;;;;5014743;28;20943;-82
2022/03/22 07:06:59;;;;;;;33.73;31.00;;;;;;;;;;5014826;28;20433;-81
2022/03/22 07:09:28;;;;;;;34.73;31.53;;;;;;;;;;5015300;28;20476;-83
2022/03/22 07:11:56;;;;;;;35.23;32.43;;;;;;;;;;5014607;28;20437;-81
2022/03/22 07:14:25;;;;;;;34.93;32.07;;;;;;;;;;5014157;28;20569;-83
2022/03/22 07:16:53;;;;;;;35.13;32.23;;;;;;;;;;5014741;28;20467;-82
2022/03/22 07:19:21;;;;;;;35.67;32.57;;;;;;;;;;5014701;28;20461;-82
2022/03/22 07:21:48;;;;;;;34.83;31.97;;;;;;;;;;5014344;28;20795;-81
2022/03/22 07:24:18;;;;;;;35.10;32.30;;;;;;;;;;5014251;28;20423;-81
2022/03/22 07:26:46;;;;;;;35.73;32.80;;;;;;;;;;5014163;28;20914;-90
2022/03/22 07:29:14;;;;;;;35.03;32.13;;;;;;;;;;5014620;28;20804;-82
2022/03/22 07:31:42;;;;;;;33.30;30.80;;;;;;;;;;5014294;28;20416;-81
2022/03/22 07:34:11;;;;;;;36.10;33.20;;;;;;;;;;5014416;28;20445;-81
2022/03/22 07:36:39;;;;;;;35.03;32.23;;;;;;;;;;5014374;28;20411;-82
2022/03/22 07:39:07;;;;;;;35.03;32.03;;;;;;;;;;5014116;28;20455;-82
2022/03/22 07:41:34;;;;;;;35.33;32.30;;;;;;;;;;5014082;28;20437;-82
2022/03/22 07:44:03;;;;;;;35.00;32.20;;;;;;;;;;5014178;28;20927;-82
2022/03/22 07:46:31;;;;;;;35.90;32.73;;;;;;;;;;5014262;28;20528;-81
2022/03/22 07:52:58;;;;;;;33.73;31.07;;;;;;;;;;5013688;28;20466;-81
2022/03/22 07:54:33;;;;;;;33.73;30.93;;;;;;;;;;4988336;28;20448;-82
2022/03/22 07:57:01;;;;;;;35.27;32.43;;;;;;;;;;5013877;28;20415;-82
2022/03/22 07:59:29;;;;;;;35.43;32.73;;;;;;;;;;5013930;28;20476;-82
2022/03/22 08:01:57;;;;;;;35.67;32.70;;;;;;;;;;5013931;28;20462;-82
2022/03/22 08:04:24;;;;;;;33.17;30.37;;;;;;;;;;5013818;28;20444;-82
2022/03/22 08:06:51;;;;;;;31.93;29.63;;;;;;;;;;5013881;28;20415;-82
2022/03/22 08:09:19;;;;;;;34.13;31.13;;;;;;;;;;5013626;28;20521;-79
2022/03/22 08:11:46;;;;;;;34.27;31.37;;;;;;;;;;5013611;28;20420;-79
2022/03/22 08:14:13;;;;;;;34.73;31.93;;;;;;;;;;5013461;28;20468;-80
2022/03/22 08:16:42;;;;;;;34.67;31.80;;;;;;;;;;5013772;28;20905;-84
2022/03/22 08:19:17;;;;;;;34.70;32.20;;;;;;;;;;5014292;28;20430;-87
2022/03/22 08:21:44;;;;;;;37.77;34.47;;;;;;;;;;5014008;28;20454;-84
2022/03/22 08:24:12;;;;;;;34.43;31.67;;;;;;;;;;5013982;28;20408;-86
2022/03/22 08:26:39;;;;;;;35.43;32.47;;;;;;;;;;5013193;28;20511;-85
2022/03/22 08:29:08;;;;;;;34.87;32.07;;;;;;;;;;5013629;28;20455;-83
2022/03/22 08:31:36;;;;;;;33.63;30.93;;;;;;;;;;5013785;28;20465;-81
2022/03/22 08:34:05;;;;;;;34.03;30.93;;;;;;;;;;5013369;28;20552;-83
2022/03/22 08:36:33;;;;;;;35.20;32.50;;;;;;;;;;5013623;28;20522;-83
2022/03/22 08:39:01;;;;;;;33.50;31.00;;;;;;;;;;5013148;28;20519;-81
2022/03/22 08:41:28;;;;;;;35.77;32.80;;;;;;;;;;5013287;28;20430;-82
2022/03/22 08:43:56;;;;;;;35.50;32.70;;;;;;;;;;5013332;28;20469;-81
2022/03/22 08:46:24;;;;;;;38.13;33.70;;;;;;;;;;5013435;28;20789;-82
2022/03/22 08:48:52;;;;;;;36.57;33.30;;;;;;;;;;5013142;28;20467;-79
2022/03/22 08:51:24;;;;;;;34.63;32.00;;;;;;;;;;5013260;28;21002;-81
2022/03/22 08:53:51;;;;;;;37.43;34.23;;;;;;;;;;5013271;28;20556;-84
2022/03/22 08:56:19;;;;;;;37.40;33.83;;;;;;;;;;5013464;28;20416;-83
2022/03/22 08:58:46;;;;;;;34.00;31.40;;;;;;;;;;5013607;28;20438;-83
2022/03/22 09:01:13;;;;;;;35.40;32.63;;;;;;;;;;5013289;28;20408;-83
2022/03/22 09:03:41;;;;;;;34.40;31.80;;;;;;;;;;5013404;28;20442;-83
2022/03/22 09:06:12;;;;;;;37.47;34.40;;;;;;;;;;5013275;28;20437;-83
2022/03/22 09:08:41;;;;;;;37.20;33.97;;;;;;;;;;5013116;28;20468;-82
2022/03/22 09:11:09;;;;;;;36.23;33.43;;;;;;;;;;5013087;28;20437;-83
2022/03/22 09:13:37;;;;;;;35.93;33.03;;;;;;;;;;5012892;28;20524;-83
2022/03/22 09:16:05;;;;;;;36.63;33.47;;;;;;;;;;4995290;28;20910;-82
2022/03/22 09:18:33;;;;;;;36.47;33.57;;;;;;;;;;5013005;28;20483;-83
2022/03/22 09:21:00;;;;;;;37.23;34.33;;;;;;;;;;5013115;28;20469;-82
2022/03/22 09:23:27;;;;;;;36.07;32.90;;;;;;;;;;5013030;28;20440;-82
2022/03/22 09:25:56;;;;;;;37.53;34.40;;;;;;;;;;5013169;28;20453;-82
2022/03/22 09:28:23;;;;;;;35.17;32.47;;;;;;;;;;4995078;28;20485;-83
2022/03/22 09:30:51;;;;;;;38.33;34.70;;;;;;;;;;5013174;28;20423;-82
2022/03/22 09:33:18;;;;;;;35.80;32.70;;;;;;;;;;5012675;28;20944;-83
2022/03/22 09:35:48;;;;;;;38.87;34.83;;;;;;;;;;5012822;28;20525;-82
2022/03/22 09:38:15;;;;;;;35.63;32.70;;;;;;;;;;5016370;28;20516;-82
2022/03/22 09:40:43;;;;;;;36.67;33.70;;;;;;;;;;5016390;28;20415;-83
2022/03/22 09:43:12;;;;;;;38.40;35.23;;;;;;;;;;5016442;28;20445;-83
2022/03/22 09:45:39;;;;;;;35.73;32.60;;;;;;;;;;5016518;28;20415;-79
2022/03/22 09:48:08;;;;;;;37.17;34.17;;;;;;;;;;5016334;28;20468;-85
2022/03/22 09:53:20;;;;;;;37.40;33.60;;;;;;;;;;5017123;28;20860;-87
2022/03/22 09:55:48;;;;;;;37.90;34.53;;;;;;;;;;5000782;28;20473;-87
2022/03/22 09:58:17;;;;;;;36.23;33.17;;;;;;;;;;5017953;28;20416;-87
2022/03/22 10:00:44;;;;;;;34.40;31.30;;;;;;;;;;5018387;28;20436;-88
2022/03/22 10:03:18;;;;;;;35.23;32.13;;;;;;;;;;5018164;28;20420;-88
2022/03/22 10:05:47;;;;;;;35.47;32.43;;;;;;;;;;5017622;28;20939;-87
2022/03/22 10:08:15;;;;;;;36.30;33.20;;;;;;;;;;5016801;28;21017;-88
2022/03/22 10:10:53;;;;;;;36.73;33.77;;;;;;;;;;5016994;28;20412;-87
2022/03/22 10:13:22;;;;;;;36.33;33.37;;;;;;;;;;5017000;28;20431;-87
2022/03/22 10:15:50;;;;;;;36.10;32.87;;;;;;;;;;5017009;28;20511;-86
2022/03/22 10:18:24;;;;;;;35.90;32.67;;;;;;;;;;5016672;28;20452;-85
2022/03/22 10:20:58;;;;;;;33.07;30.17;;;;;;;;;;4999043;28;20490;-87
2022/03/22 10:23:26;;;;;;;37.07;34.00;;;;;;;;;;5016365;28;20526;-85
2022/03/22 10:26:03;;;;;;;35.10;32.10;;;;;;;;;;5016824;28;20447;-87
2022/03/22 10:28:32;;;;;;;35.20;32.20;;;;;;;;;;5016840;28;21003;-87
2022/03/22 10:30:59;;;;;;;36.73;33.60;;;;;;;;;;5016774;28;20431;-87
2022/03/22 10:33:26;;;;;;;38.20;34.87;;;;;;;;;;5016193;28;20440;-88
2022/03/22 10:35:54;;;;;;;37.07;33.70;;;;;;;;;;5016496;28;20439;-87
2022/03/22 10:38:23;;;;;;;35.23;32.00;;;;;;;;;;5016289;28;20493;-84
2022/03/22 10:40:51;;;;;;;34.83;31.93;;;;;;;;;;5015501;28;20447;-84
2022/03/22 10:43:19;;;;;;;35.63;32.17;;;;;;;;;;5015118;28;20532;-83
2022/03/22 10:45:49;;;;;;;37.00;33.73;;;;;;;;;;5015389;28;20416;-84
2022/03/22 10:48:17;;;;;;;35.37;32.47;;;;;;;;;;5015128;28;20442;-87
2022/03/22 10:50:46;;;;;;;35.60;32.57;;;;;;;;;;5015533;28;20834;-83
2022/03/22 10:53:15;;;;;;;35.60;32.60;;;;;;;;;;5015319;28;20476;-82
2022/03/22 10:55:43;;;;;;;34.23;31.47;;;;;;;;;;5015575;28;20437;-84
2022/03/22 10:58:12;;;;;;;35.63;32.70;;;;;;;;;;5015722;28;20906;-84
2022/03/22 11:00:41;;;;;;;34.93;31.83;;;;;;;;;;5015348;28;20468;-84
2022/03/22 11:03:10;;;;;;;36.33;33.13;;;;;;;;;;5015712;28;20420;-85
2022/03/22 11:05:38;;;;;;;37.30;33.90;;;;;;;;;;5015605;28;20437;-85
2022/03/22 11:08:05;;;;;;;35.13;32.13;;;;;;;;;;5015735;28;20416;-86
2022/03/22 11:10:33;;;;;;;35.43;32.13;;;;;;;;;;5015534;28;20481;-85
2022/03/22 11:13:01;;;;;;;36.83;33.60;;;;;;;;;;5015552;28;20419;-85
2022/03/22 11:15:29;;;;;;;35.90;32.93;;;;;;;;;;5015097;28;20408;-84
2022/03/22 11:17:58;;;;;;;35.90;32.43;;;;;;;;;;4997865;28;20493;-85
2022/03/22 11:20:28;;;;;;;35.37;32.60;;;;;;;;;;5015133;28;20451;-85
2022/03/22 11:22:56;;;;;;;35.27;32.30;;;;;;;;;;5015092;28;20416;-85
2022/03/22 11:25:28;;;;;;;36.90;33.70;;;;;;;;;;4997981;28;20523;-85
2022/03/22 11:27:59;;;;;;;37.70;34.60;;;;;;;;;;5014992;28;20480;-84
2022/03/22 11:30:28;;;;;;;34.80;31.97;;;;;;;;;;5015217;28;20477;-85
2022/03/22 11:35:50;;;;;;;35.33;32.30;;;;;;;;;;5015524;28;20459;-85
2022/03/22 11:38:32;;;;;;;36.03;32.63;;;;;;;;;;5014478;28;20963;-85
2022/03/22 11:43:44;;;;;;;37.83;34.90;;;;;;;;;;5014118;28;20467;-82
2022/03/22 11:46:12;;;;;;;35.10;31.97;;;;;;;;;;5014264;28;20416;-83
2022/03/22 11:48:40;;;;;;;34.70;31.80;;;;;;;;;;5013939;28;20898;-83
2022/03/22 11:51:10;;;;;;;36.20;33.03;;;;;;;;;;5014246;28;20461;-83
2022/03/22 11:53:43;;;;;;;36.07;33.07;;;;;;;;;;5014277;28;20912;-83
2022/03/22 11:56:11;;;;;;;35.07;32.23;;;;;;;;;;5014131;28;20445;-82
2022/03/22 11:58:49;;;;;;;36.43;33.40;;;;;;;;;;5013776;28;20906;-82
2022/03/22 12:01:17;;;;;;;34.07;31.17;;;;;;;;;;4995250;28;20998;-82
2022/03/22 12:03:50;;;;;;;33.10;29.93;;;;;;;;;;5013749;28;20775;-83
2022/03/22 12:06:19;;;;;;;32.50;29.90;;;;;;;;;;5014011;28;20829;-83
2022/03/22 12:08:47;;;;;;;32.63;29.93;;;;;;;;;;5013944;28;20773;-82
2022/03/22 12:11:16;;;;;;;31.57;29.17;;;;;;;;;;5013999;28;20846;-83
2022/03/22 12:13:47;;;;;;;34.53;31.63;;;;;;;;;;5013570;28;20511;-82
2022/03/22 12:16:15;;;;;;;31.10;28.70;;;;;;;;;;5013698;28;20477;-82
2022/03/22 12:18:42;;;;;;;30.53;27.97;;;;;;;;;;5013413;28;20439;-82
2022/03/22 12:21:19;;;;;;;33.00;30.20;;;;;;;;;;5013374;28;20431;-83
2022/03/22 12:23:46;;;;;;;34.20;31.50;;;;;;;;;;5013940;28;20441;-83
2022/03/22 12:26:13;;;;;;;33.47;30.77;;;;;;;;;;5013461;28;20532;-83
2022/03/22 12:28:48;;;;;;;31.60;28.53;;;;;;;;;;5013485;28;20443;-83
2022/03/22 12:31:20;;;;;;;34.30;31.40;;;;;;;;;;5013632;28;20491;-83
2022/03/22 12:33:51;;;;;;;33.57;30.80;;;;;;;;;;5013514;28;20457;-83
2022/03/22 12:36:21;;;;;;;31.37;28.67;;;;;;;;;;5013367;28;20432;-82
2022/03/22 12:38:48;;;;;;;31.73;29.03;;;;;;;;;;5013175;28;20571;-83
2022/03/22 12:41:16;;;;;;;32.60;29.70;;;;;;;;;;5013443;28;20515;-82
2022/03/22 12:43:45;;;;;;;33.37;30.60;;;;;;;;;;5013314;28;20919;-82
2022/03/22 12:46:12;;;;;;;35.03;32.13;;;;;;;;;;5013078;28;20501;-83
2022/03/22 12:48:41;;;;;;;33.57;30.67;;;;;;;;;;4995922;28;20480;-83
2022/03/22 12:51:10;;;;;;;32.03;29.20;;;;;;;;;;5013644;28;20445;-82
2022/03/22 12:53:39;;;;;;;31.67;29.07;;;;;;;;;;5013559;28;20433;-82
2022/03/22 12:56:14;;;;;;;31.90;29.37;;;;;;;;;;5013427;28;20835;-83
2022/03/22 12:58:42;;;;;;;31.63;29.23;;;;;;;;;;5013176;28;20420;-81
2022/03/22 13:01:09;;;;;;;30.03;27.73;;;;;;;;;;5013017;28;20448;-82
2022/03/22 13:03:38;;;;;;;29.80;27.57;;;;;;;;;;5013074;28;20444;-83
2022/03/22 13:06:07;;;;;;;31.37;28.80;;;;;;;;;;5013349;28;20963;-82
2022/03/22 13:11:30;;;;;;;31.90;29.30;;;;;;;;;;5012802;28;20485;-82
2022/03/22 13:16:43;;;;;;;33.43;30.90;;;;;;;;;;5016811;28;20405;-82
2022/03/22 13:19:10;;;;;;;33.10;30.50;;;;;;;;;;5016924;28;20575;-82
2022/03/22 13:21:39;;;;;;;34.53;31.73;;;;;;;;;;5016664;28;20431;-82
2022/03/22 13:24:08;;;;;;;35.57;32.77;;;;;;;;;;5017040;28;20427;-82
2022/03/22 13:26:37;;;;;;;35.23;32.33;;;;;;;;;;5016629;28;20477;-82
2022/03/22 13:29:14;;;;;;;33.20;30.40;;;;;;;;;;5016651;28;20427;-83
2022/03/22 13:31:52;;;;;;;34.77;32.00;;;;;;;;;;5016368;28;20935;-82
2022/03/22 13:34:21;;;;;;;34.97;31.60;;;;;;;;;;5016390;28;20495;-82
2022/03/22 13:36:48;;;;;;;33.33;30.73;;;;;;;;;;5016718;28;20416;-82
2022/03/22 13:39:23;;;;;;;35.27;32.00;;;;;;;;;;5016414;28;20480;-83
2022/03/22 13:41:52;;;;;;;32.93;30.20;;;;;;;;;;5016329;28;20415;-83
2022/03/22 13:44:28;;;;;;;34.07;31.33;;;;;;;;;;5016390;28;20449;-83
2022/03/22 13:46:59;;;;;;;34.23;31.43;;;;;;;;;;5017086;28;20415;-82
2022/03/22 13:49:34;;;;;;;33.83;31.00;;;;;;;;;;5016255;28;20875;-83
2022/03/22 13:52:02;;;;;;;31.00;28.70;;;;;;;;;;5017115;28;20919;-83
2022/03/22 13:54:29;;;;;;;34.37;31.63;;;;;;;;;;5016732;28;20465;-83
2022/03/22 13:57:07;;;;;;;33.47;30.57;;;;;;;;;;5016542;28;20426;-83
2022/03/22 13:59:41;;;;;;;35.63;32.83;;;;;;;;;;5016188;28;20451;-83
2022/03/22 14:02:09;;;;;;;35.50;32.60;;;;;;;;;;5017260;28;20448;-83
2022/03/22 14:04:37;;;;;;;35.47;32.60;;;;;;;;;;5016547;28;20416;-82
2022/03/22 14:07:04;;;;;;;34.33;31.63;;;;;;;;;;5017053;28;20441;-82
2022/03/22 14:09:32;;;;;;;34.77;32.07;;;;;;;;;;5016136;28;20818;-81
2022/03/22 14:12:00;;;;;;;35.60;32.80;;;;;;;;;;5017079;28;20439;-83
2022/03/22 14:14:28;;;;;;;34.30;31.37;;;;;;;;;;5016697;28;20427;-83
2022/03/22 14:16:56;;;;;;;33.93;31.50;;;;;;;;;;5015655;28;20466;-82
2022/03/22 14:19:23;;;;;;;33.17;30.40;;;;;;;;;;5015926;28;20438;-82
2022/03/22 14:21:51;;;;;;;33.30;30.40;;;;;;;;;;5015634;28;20408;-82
2022/03/22 14:24:18;;;;;;;33.33;30.80;;;;;;;;;;5015856;28;20894;-82
2022/03/22 14:26:45;;;;;;;34.90;32.07;;;;;;;;;;5015412;28;20956;-81
2022/03/22 14:29:12;;;;;;;34.30;31.70;;;;;;;;;;5015757;28;20478;-83
2022/03/22 14:31:43;;;;;;;34.30;31.60;;;;;;;;;;5015777;28;20459;-82
2022/03/22 14:34:13;;;;;;;33.57;31.07;;;;;;;;;;5016191;28;20545;-83
2022/03/22 14:36:57;;;;;;;34.40;31.70;;;;;;;;;;5016202;28;20399;-80
2022/03/22 14:39:24;;;;;;;34.27;31.47;;;;;;;;;;5015114;28;20459;-82
2022/03/22 14:41:51;;;;;;;34.97;32.27;;;;;;;;;;5015487;28;20408;-82
2022/03/22 14:44:19;;;;;;;35.23;32.33;;;;;;;;;;5015348;28;20427;-82
2022/03/22 14:46:51;;;;;;;35.93;33.13;;;;;;;;;;5015406;28;20456;-81
2022/03/22 14:49:18;;;;;;;35.63;32.53;;;;;;;;;;5015303;28;20468;-83
2022/03/22 14:54:32;;;;;;;32.70;29.87;;;;;;;;;;5015206;28;20531;-83
2022/03/22 14:59:45;;;;;;;33.20;30.50;;;;;;;;;;5015583;28;20475;-83
2022/03/22 15:02:15;;;;;;;31.80;29.30;;;;;;;;;;5015052;28;20463;-82
2022/03/22 15:04:42;;;;;;;32.73;30.13;;;;;;;;;;4997155;28;20954;-83
2022/03/22 15:07:10;;;;;;;31.83;29.30;;;;;;;;;;5015107;28;20442;-82
2022/03/22 15:09:39;;;;;;;32.83;30.03;;;;;;;;;;5014533;28;20453;-82